Time;durP1;ratioP1;P1;durP2;ratioP2;P2;SDS_P1;SDS_P2;PMS_P1;PMS_P2;Temp;Humidity;BMP_temperature;BMP_pressure;BME280_temperature;BME280_humidity;BME280_pressure;Samples;Min_cycle;Max_cycle;Signal;HPM_P1;HPM_P2
2023/12/30 15:23:12;;;;;;;10.52;5.65;;;;;;;7.51;100.00;92731.22;5065684;28;20366;-77
2023/12/30 15:25:38;;;;;;;8.10;5.13;;;;;;;7.45;100.00;92731.47;5065558;28;20538;-77
2023/12/30 15:28:06;;;;;;;7.50;5.25;;;;;;;7.40;100.00;92727.03;5073955;28;20043;-77
2023/12/30 15:30:32;;;;;;;9.18;5.90;;;;;;;7.48;100.00;92734.34;5064490;28;20049;-77
2023/12/30 15:32:58;;;;;;;8.63;4.97;;;;;;;7.45;100.00;92734.88;5058118;28;20075;-78
2023/12/30 15:35:23;;;;;;;8.13;5.53;;;;;;;7.40;100.00;92727.03;5064763;28;20550;-77
2023/12/30 15:37:49;;;;;;;9.00;5.25;;;;;;;7.36;100.00;92738.25;5064694;28;20036;-78
2023/12/30 15:40:15;;;;;;;8.05;5.55;;;;;;;7.23;100.00;92740.31;5064667;28;20518;-77
2023/12/30 15:42:40;;;;;;;9.80;5.50;;;;;;;7.22;100.00;92749.16;5063544;28;20032;-77
2023/12/30 15:45:06;;;;;;;9.45;5.22;;;;;;;7.18;100.00;92750.75;5046820;28;20056;-77
2023/12/30 15:47:31;;;;;;;8.05;5.22;;;;;;;7.15;100.00;92751.22;5063788;28;20064;-77
2023/12/30 15:49:58;;;;;;;8.18;5.45;;;;;;;7.05;100.00;92754.59;5056628;28;20500;-77
2023/12/30 15:52:24;;;;;;;8.45;6.20;;;;;;;7.03;100.00;92750.69;5064541;28;20048;-77
2023/12/30 15:54:52;;;;;;;11.95;7.70;;;;;;;7.00;100.00;92753.81;5059877;28;20135;-77
2023/12/30 15:57:17;;;;;;;18.35;8.63;;;;;;;6.94;100.00;92755.63;5057019;28;20388;-77
2023/12/30 15:59:44;;;;;;;13.48;9.13;;;;;;;6.96;100.00;92763.16;5063823;28;20044;-78
2023/12/30 16:02:09;;;;;;;14.68;8.60;;;;;;;6.93;100.00;92761.84;5062288;28;20029;-77
2023/12/30 16:04:35;;;;;;;11.98;7.72;;;;;;;6.96;100.00;92757.94;5054643;28;20037;-77
2023/12/30 16:07:00;;;;;;;11.63;7.75;;;;;;;6.97;100.00;92762.91;5051146;28;20488;-77
2023/12/30 16:09:26;;;;;;;9.65;7.40;;;;;;;6.96;100.00;92760.56;5063580;28;20040;-77
2023/12/30 16:11:52;;;;;;;12.10;8.32;;;;;;;6.97;100.00;92762.13;5062097;28;20017;-77
2023/12/30 16:14:17;;;;;;;13.07;8.95;;;;;;;6.95;100.00;92767.59;5046274;28;20048;-77
2023/12/30 16:16:46;;;;;;;15.20;9.52;;;;;;;6.87;100.00;92758.47;5071229;28;20128;-77
2023/12/30 16:19:12;;;;;;;16.38;10.50;;;;;;;6.88;100.00;92761.84;5062433;28;20041;-77
2023/12/30 16:21:38;;;;;;;15.90;9.65;;;;;;;6.87;100.00;92760.28;5063463;28;20047;-77
2023/12/30 16:24:04;;;;;;;15.20;10.77;;;;;;;6.82;100.00;92766.28;5056327;28;20077;-77
2023/12/30 16:26:29;;;;;;;14.98;9.20;;;;;;;6.74;100.00;92771.97;5063754;28;20029;-77
2023/12/30 16:28:57;;;;;;;14.13;8.82;;;;;;;6.74;100.00;92765.97;5055470;28;20041;-77
2023/12/30 16:31:23;;;;;;;10.52;7.25;;;;;;;6.71;100.00;92767.28;5055236;28;20035;-77
2023/12/30 16:33:49;;;;;;;11.18;7.65;;;;;;;6.72;100.00;92770.66;5047155;28;20044;-77
2023/12/30 16:36:14;;;;;;;13.10;8.80;;;;;;;6.72;100.00;92768.03;5049378;28;20396;-77
2023/12/30 16:38:40;;;;;;;11.35;7.90;;;;;;;6.71;100.00;92771.66;5050488;28;20447;-77
2023/12/30 16:41:05;;;;;;;14.70;8.48;;;;;;;6.72;100.00;92768.81;5043711;28;20029;-77
2023/12/30 16:43:34;;;;;;;15.05;10.35;;;;;;;6.68;100.00;92773.75;5050663;28;20041;-77
2023/12/30 16:46:00;;;;;;;13.48;9.60;;;;;;;6.66;100.00;92769.84;5049993;28;20427;-77
2023/12/30 16:48:26;;;;;;;13.70;8.95;;;;;;;6.59;100.00;92769.28;5050148;28;20087;-77
2023/12/30 16:50:51;;;;;;;11.05;8.73;;;;;;;6.52;100.00;92763.53;5048019;28;20459;-77
2023/12/30 16:53:17;;;;;;;13.75;8.63;;;;;;;6.50;100.00;92765.63;5050348;28;20120;-77
2023/12/30 16:55:43;;;;;;;11.50;7.90;;;;;;;6.45;100.00;92768.97;5046543;28;20078;-77
2023/12/30 16:58:08;;;;;;;12.50;8.65;;;;;;;6.39;100.00;92775.97;5039836;28;20049;-77
2023/12/30 17:00:34;;;;;;;18.15;10.32;;;;;;;6.35;100.00;92766.31;5033342;28;20021;-77
2023/12/30 17:02:59;;;;;;;15.70;11.10;;;;;;;6.28;100.00;92763.94;5033458;28;20635;-77
2023/12/30 17:05:26;;;;;;;19.02;11.20;;;;;;;6.29;100.00;92765.53;5039621;28;20647;-77
2023/12/30 17:07:52;;;;;;;17.27;10.88;;;;;;;6.24;100.00;92758.47;5041239;28;20396;-77
2023/12/30 17:10:17;;;;;;;20.55;13.43;;;;;;;6.20;100.00;92764.44;5037500;28;20033;-77
2023/12/30 17:12:43;;;;;;;17.13;11.77;;;;;;;6.21;100.00;92768.59;5038903;28;20515;-77
2023/12/30 17:15:09;;;;;;;19.30;11.50;;;;;;;6.23;100.00;92774.31;5045123;28;20392;-77
2023/12/30 17:17:34;;;;;;;15.35;11.38;;;;;;;6.23;100.00;92774.31;5049924;28;20064;-77
2023/12/30 17:20:00;;;;;;;15.63;10.15;;;;;;;6.24;100.00;92775.91;5031978;28;20292;-77
2023/12/30 17:22:26;;;;;;;18.70;11.88;;;;;;;6.25;100.00;92780.06;5049406;28;20067;-77
2023/12/30 17:24:52;;;;;;;19.50;12.38;;;;;;;6.19;100.00;92778.44;5048598;28;20400;-77
2023/12/30 17:27:18;;;;;;;20.83;13.00;;;;;;;6.18;100.00;92784.69;5032082;28;20424;-79
2023/12/30 17:29:44;;;;;;;20.85;13.85;;;;;;;6.16;100.00;92771.94;5033839;28;20108;-79
2023/12/30 17:32:10;;;;;;;21.52;14.57;;;;;;;6.17;100.00;92783.91;5040722;28;20097;-78
2023/12/30 17:34:36;;;;;;;23.08;14.98;;;;;;;6.17;100.00;92783.13;5040954;28;20508;-78
2023/12/30 17:37:02;;;;;;;22.65;15.93;;;;;;;6.15;100.00;92790.41;5042780;28;20225;-78
2023/12/30 17:39:28;;;;;;;23.48;15.25;;;;;;;6.04;100.00;92777.34;5046895;28;20519;-79
2023/12/30 17:41:53;;;;;;;20.27;14.38;;;;;;;6.13;100.00;92787.28;5043247;28;20071;-78
2023/12/30 17:44:19;;;;;;;24.83;17.27;;;;;;;6.12;100.00;92786.47;5035698;28;20144;-78
2023/12/30 17:46:44;;;;;;;22.75;17.15;;;;;;;6.10;100.00;92790.34;5036863;28;20048;-79
2023/12/30 17:49:10;;;;;;;21.98;15.30;;;;;;;6.09;100.00;92794.00;5039438;28;20443;-79
2023/12/30 17:51:35;;;;;;;21.63;14.40;;;;;;;6.06;100.00;92800.47;5050243;28;20041;-78
2023/12/30 17:54:02;;;;;;;19.77;14.05;;;;;;;6.05;100.00;92791.09;5044999;28;20037;-80
2023/12/30 17:56:29;;;;;;;21.80;14.65;;;;;;;6.07;100.00;92796.06;5046262;28;20036;-80
2023/12/30 17:58:55;;;;;;;20.05;13.93;;;;;;;6.03;100.00;92788.78;5050664;28;20694;-79
2023/12/30 18:01:21;;;;;;;23.63;14.77;;;;;;;6.02;100.00;92792.41;5050987;28;20029;-80
2023/12/30 18:03:46;;;;;;;17.48;11.57;;;;;;;6.01;100.00;92790.03;5048394;28;20502;-79
2023/12/30 18:06:12;;;;;;;22.38;12.02;;;;;;;5.95;100.00;92791.84;5044348;28;20570;-80
2023/12/30 18:08:38;;;;;;;16.33;11.77;;;;;;;6.00;100.00;92798.88;5035769;28;20025;-78
2023/12/30 18:11:03;;;;;;;18.33;11.95;;;;;;;6.02;100.00;92796.81;5044995;28;20037;-79
2023/12/30 18:13:29;;;;;;;15.20;11.10;;;;;;;6.00;100.00;92791.09;5048687;28;20036;-78
2023/12/30 18:15:55;;;;;;;15.85;11.15;;;;;;;6.04;100.00;92795.53;5053202;28;20052;-79
2023/12/30 18:18:21;;;;;;;15.10;9.95;;;;;;;6.07;100.00;92793.47;5042821;28;20029;-78
2023/12/30 18:20:48;;;;;;;17.13;10.15;;;;;;;6.07;100.00;92790.88;5041243;28;20408;-79
2023/12/30 18:23:14;;;;;;;14.77;10.15;;;;;;;6.07;100.00;92793.47;5041782;28;20041;-78
2023/12/30 18:25:39;;;;;;;14.15;9.32;;;;;;;6.02;100.00;92792.41;5048114;28;20044;-78
2023/12/30 18:28:05;;;;;;;14.82;9.32;;;;;;;6.00;100.00;92797.06;5035417;28;20033;-79
2023/12/30 18:30:30;;;;;;;11.95;7.95;;;;;;;6.03;100.00;92798.38;5039111;28;20043;-79
2023/12/30 18:32:56;;;;;;;16.80;9.85;;;;;;;6.01;100.00;92795.22;5039340;28;20483;-79
2023/12/30 18:35:23;;;;;;;16.30;9.45;;;;;;;6.00;100.00;92794.47;5040442;28;20041;-79
2023/12/30 18:37:49;;;;;;;14.90;9.75;;;;;;;6.00;100.00;92799.66;5047790;28;20032;-79
2023/12/30 18:40:15;;;;;;;14.20;9.00;;;;;;;6.00;100.00;92798.88;5039610;28;20064;-78
2023/12/30 18:42:42;;;;;;;14.88;10.00;;;;;;;5.99;100.00;92803.28;5043552;28;20118;-78
2023/12/30 18:45:08;;;;;;;15.27;10.38;;;;;;;5.95;100.00;92807.41;5040847;28;20033;-79
2023/12/30 18:47:33;;;;;;;16.23;10.20;;;;;;;5.91;100.00;92795.94;5046500;28;20566;-78
2023/12/30 18:49:59;;;;;;;14.68;10.32;;;;;;;5.92;100.00;92796.69;5042915;28;20112;-78
2023/12/30 18:52:24;;;;;;;14.60;10.52;;;;;;;5.90;100.00;92803.97;5048796;28;20112;-78
2023/12/30 18:54:50;;;;;;;15.07;9.65;;;;;;;5.89;100.00;92792.78;5040751;28;20049;-78
2023/12/30 18:57:16;;;;;;;14.93;9.57;;;;;;;5.90;100.00;92796.97;5038915;28;20632;-78
2023/12/30 18:59:42;;;;;;;13.90;8.77;;;;;;;5.88;100.00;92787.84;5033705;28;20056;-78
2023/12/30 19:02:07;;;;;;;13.10;8.63;;;;;;;5.91;100.00;92792.56;5041328;28;20120;-78
2023/12/30 19:04:34;;;;;;;14.50;9.45;;;;;;;5.88;100.00;92798.22;5033005;28;20036;-78
2023/12/30 19:06:59;;;;;;;20.30;13.52;;;;;;;5.93;100.00;92796.47;5034355;28;20037;-78
2023/12/30 19:09:26;;;;;;;19.63;13.55;;;;;;;5.84;100.00;92790.94;5043802;28;20083;-78
2023/12/30 19:11:52;;;;;;;21.23;14.57;;;;;;;5.84;100.00;92793.53;5039663;28;20031;-78
2023/12/30 19:14:17;;;;;;;24.33;16.85;;;;;;;5.81;100.00;92795.88;5040670;28;20049;-78
2023/12/30 19:16:43;;;;;;;22.98;15.85;;;;;;;5.79;100.00;92793.50;5048017;28;20040;-78
2023/12/30 19:19:09;;;;;;;34.22;19.52;;;;;;;5.77;100.00;92787.00;5046440;28;20136;-78
2023/12/30 19:21:34;;;;;;;30.60;18.10;;;;;;;5.80;100.00;92789.09;5047459;28;20044;-78
2023/12/30 19:24:03;;;;;;;27.35;16.52;;;;;;;5.78;100.00;92788.56;5041424;28;20387;-78
2023/12/30 19:26:29;;;;;;;21.20;14.38;;;;;;;5.72;100.00;92786.94;5048083;28;20041;-78
2023/12/30 19:28:54;;;;;;;26.52;15.02;;;;;;;5.73;100.00;92793.72;5038238;28;20079;-78
2023/12/30 19:31:20;;;;;;;23.70;16.65;;;;;;;5.78;100.00;92801.53;5043316;28;20025;-78
2023/12/30 19:33:46;;;;;;;26.25;17.15;;;;;;;5.72;100.00;92797.34;5039620;28;20135;-78
2023/12/30 19:36:11;;;;;;;23.92;15.02;;;;;;;5.64;100.00;92796.75;5046319;28;20036;-78
2023/12/30 19:38:37;;;;;;;20.88;14.15;;;;;;;5.75;100.00;92802.81;5047701;28;20044;-78
2023/12/30 19:41:02;;;;;;;36.70;20.85;;;;;;;5.74;100.00;92800.47;5046610;28;20048;-78
2023/12/30 19:43:28;;;;;;;40.63;23.05;;;;;;;5.66;100.00;92795.75;5047830;28;20544;-78
2023/12/30 19:45:54;;;;;;;27.35;16.58;;;;;;;5.62;100.00;92801.41;5047636;28;20130;-78
2023/12/30 19:48:21;;;;;;;24.30;15.07;;;;;;;5.62;100.00;92796.22;5047878;28;20040;-78
2023/12/30 19:50:46;;;;;;;24.88;15.80;;;;;;;5.60;100.00;92794.91;5048088;28;20033;-78
2023/12/30 19:53:15;;;;;;;28.50;19.60;;;;;;;5.61;100.00;92797.25;5043853;28;20060;-78
2023/12/30 19:55:41;;;;;;;27.48;18.85;;;;;;;5.65;100.00;92797.53;5042206;28;20388;-77
2023/12/30 19:58:07;;;;;;;27.33;19.27;;;;;;;5.64;100.00;92801.19;5047993;28;20052;-78
2023/12/30 20:00:33;;;;;;;30.33;19.58;;;;;;;5.62;100.00;92793.63;5047544;28;20040;-78
2023/12/30 20:02:59;;;;;;;27.10;18.55;;;;;;;5.59;100.00;92794.13;5039989;28;20041;-78
2023/12/30 20:05:24;;;;;;;25.30;18.98;;;;;;;5.59;100.00;92798.53;5040842;28;20106;-78
2023/12/30 20:07:50;;;;;;;25.85;18.55;;;;;;;5.57;100.00;92798.00;5045438;28;20399;-78
2023/12/30 20:10:15;;;;;;;25.48;17.23;;;;;;;5.54;100.00;92799.28;5043922;28;20071;-78
2023/12/30 20:12:42;;;;;;;25.05;16.52;;;;;;;5.56;100.00;92807.63;5051314;28;20065;-78
2023/12/30 20:15:08;;;;;;;19.50;13.85;;;;;;;5.57;100.00;92808.41;5050018;28;20043;-78
2023/12/30 20:17:35;;;;;;;21.55;14.15;;;;;;;5.56;100.00;92815.41;5051725;28;20395;-79
2023/12/30 20:20:08;;;;;;;18.77;13.65;;;;;;;5.54;100.00;92809.69;5051583;28;20474;-79
2023/12/30 20:22:33;;;;;;;16.65;12.48;;;;;;;5.51;100.00;92806.78;5040527;28;20455;-78
2023/12/30 20:24:59;;;;;;;17.15;12.23;;;;;;;5.49;100.00;92806.25;5040315;28;20064;-78
2023/12/30 20:27:25;;;;;;;18.85;12.13;;;;;;;5.47;100.00;92806.50;5048436;28;20048;-78
2023/12/30 20:29:52;;;;;;;23.45;15.63;;;;;;;5.45;100.00;92792.19;5043899;28;20040;-78
2023/12/30 20:32:18;;;;;;;21.60;14.65;;;;;;;5.47;100.00;92806.50;5044130;28;20036;-78
2023/12/30 20:34:45;;;;;;;25.60;15.90;;;;;;;5.48;100.00;92799.50;5041336;28;20148;-78
2023/12/30 20:37:11;;;;;;;20.63;14.60;;;;;;;5.53;100.00;92800.31;5048662;28;20125;-79
2023/12/30 20:39:37;;;;;;;21.55;14.18;;;;;;;5.47;100.00;92798.72;5048970;28;20089;-78
2023/12/30 20:42:03;;;;;;;21.38;13.50;;;;;;;5.45;100.00;92792.97;5034440;28;20029;-78
2023/12/30 20:44:29;;;;;;;22.63;15.60;;;;;;;5.46;100.00;92791.16;5047168;28;20079;-78
2023/12/30 20:46:54;;;;;;;22.23;15.75;;;;;;;5.45;100.00;92795.56;5047997;28;20049;-78
2023/12/30 20:49:20;;;;;;;24.23;16.80;;;;;;;5.43;100.00;92802.81;5051167;28;20227;-79
2023/12/30 20:51:50;;;;;;;26.50;17.60;;;;;;;5.42;100.00;92803.84;5051386;28;20102;-78
2023/12/30 20:54:16;;;;;;;25.17;16.73;;;;;;;5.41;100.00;92797.88;5049665;28;20112;-78
2023/12/30 20:56:45;;;;;;;24.42;16.95;;;;;;;5.39;100.00;92799.16;5046125;28;20045;-79
2023/12/30 20:59:10;;;;;;;24.85;15.98;;;;;;;5.40;100.00;92801.50;5051960;28;20483;-78
2023/12/30 21:01:36;;;;;;;23.55;17.10;;;;;;;5.38;100.00;92805.34;5047463;28;20029;-78
2023/12/30 21:04:01;;;;;;;22.98;15.60;;;;;;;5.35;100.00;92798.06;5050742;28;20028;-78
2023/12/30 21:06:27;;;;;;;21.85;14.30;;;;;;;5.30;100.00;92803.22;5051771;28;20033;-78
2023/12/30 21:08:53;;;;;;;24.77;14.48;;;;;;;5.34;100.00;92807.69;5051540;28;20397;-78
2023/12/30 21:11:19;;;;;;;26.83;16.85;;;;;;;5.34;100.00;92804.31;5040821;28;20500;-78
2023/12/30 21:13:45;;;;;;;24.40;17.15;;;;;;;5.34;100.00;92802.47;5046002;28;20029;-78
2023/12/30 21:16:17;;;;;;;25.65;17.60;;;;;;;5.35;100.00;92800.66;5050984;28;20048;-78
2023/12/30 21:18:43;;;;;;;24.30;16.75;;;;;;;5.35;100.00;92792.88;5051413;28;20111;-78
2023/12/30 21:21:08;;;;;;;27.20;17.02;;;;;;;5.32;100.00;92788.97;5051166;28;20534;-78
2023/12/30 21:23:34;;;;;;;27.80;18.50;;;;;;;5.35;100.00;92787.69;5051547;28;20488;-78
2023/12/30 21:25:59;;;;;;;30.33;20.05;;;;;;;5.39;100.00;92789.53;5049143;28;20037;-78
2023/12/30 21:28:30;;;;;;;30.05;20.42;;;;;;;5.39;100.00;92778.38;5047605;28;20132;-78
2023/12/30 21:30:57;;;;;;;29.67;20.85;;;;;;;5.40;100.00;92782.53;5046422;28;20044;-78
2023/12/30 21:33:23;;;;;;;24.63;17.58;;;;;;;5.38;100.00;92788.00;5050040;28;20037;-79
2023/12/30 21:35:48;;;;;;;23.50;17.40;;;;;;;5.34;100.00;92783.53;5049149;28;20047;-78
2023/12/30 21:38:14;;;;;;;61.25;30.33;;;;;;;5.30;100.00;92787.66;5049797;28;20329;-78
2023/12/30 21:40:39;;;;;;;38.47;25.02;;;;;;;5.26;100.00;92776.97;5050852;28;20540;-78
2023/12/30 21:43:05;;;;;;;32.95;20.65;;;;;;;5.24;100.00;92775.66;5051184;28;20025;-78
2023/12/30 21:45:30;;;;;;;27.98;19.42;;;;;;;5.21;100.00;92782.13;5050866;28;20033;-77
2023/12/30 21:47:56;;;;;;;35.53;22.75;;;;;;;5.15;100.00;92773.47;5051028;28;20036;-78
2023/12/30 21:50:21;;;;;;;37.78;24.77;;;;;;;5.11;100.00;92776.81;5050857;28;20048;-77
2023/12/30 21:52:47;;;;;;;29.50;20.55;;;;;;;5.12;100.00;92776.56;5050340;28;20603;-78
2023/12/30 21:55:12;;;;;;;27.50;19.13;;;;;;;5.11;100.00;92774.22;5042700;28;20382;-78
2023/12/30 21:57:39;;;;;;;27.38;18.88;;;;;;;5.08;100.00;92778.09;5050105;28;20025;-78
2023/12/30 22:00:05;;;;;;;27.63;18.30;;;;;;;5.04;100.00;92776.22;5049898;28;20049;-78
2023/12/30 22:02:30;;;;;;;28.98;17.95;;;;;;;5.00;100.00;92778.53;5049764;28;20427;-78
2023/12/30 22:04:56;;;;;;;22.83;16.60;;;;;;;4.99;100.00;92779.56;5051094;28;20131;-78
2023/12/30 22:07:22;;;;;;;25.20;18.25;;;;;;;4.99;100.00;92784.75;5048946;28;20111;-78
2023/12/30 22:09:47;;;;;;;24.17;16.15;;;;;;;4.98;100.00;92783.19;5049498;28;20109;-78
2023/12/30 22:12:13;;;;;;;21.85;14.88;;;;;;;4.97;100.00;92772.00;5049444;28;20031;-78
2023/12/30 22:14:39;;;;;;;24.00;15.00;;;;;;;4.94;100.00;92780.28;5049811;28;20094;-78
